createdAt,value
2018-07-24T00:03:40.733Z,4.67
2018-07-24T00:08:42.927Z,4.00
2018-07-24T00:13:45.077Z,4.73
2018-07-24T00:18:47.238Z,5.03
2018-07-24T00:23:49.358Z,4.23
2018-07-24T00:28:51.519Z,4.37
2018-07-24T00:33:53.914Z,5.37
2018-07-24T00:38:56.041Z,5.07
2018-07-24T00:43:58.222Z,5.03
2018-07-24T00:49:00.397Z,4.30
2018-07-24T00:54:02.550Z,4.60
2018-07-24T00:59:05.005Z,4.63
2018-07-24T01:04:07.233Z,4.97
2018-07-24T01:09:10.545Z,5.13
2018-07-24T01:14:12.730Z,5.00
2018-07-24T01:19:14.852Z,5.07
2018-07-24T01:24:16.992Z,4.73
2018-07-24T01:29:19.198Z,5.30
2018-07-24T01:34:21.337Z,4.90
2018-07-24T01:39:23.448Z,4.43
2018-07-24T01:44:25.558Z,5.07
2018-07-24T01:49:27.683Z,5.17
2018-07-24T01:54:29.797Z,5.03
2018-07-24T01:59:31.899Z,4.77
2018-07-24T02:04:34.072Z,4.93
2018-07-24T02:09:36.251Z,5.47
2018-07-24T02:14:38.377Z,5.50
2018-07-24T02:19:40.554Z,4.33
2018-07-24T02:24:43.056Z,4.97
2018-07-24T02:29:45.282Z,5.23
2018-07-24T02:34:47.427Z,5.43
2018-07-24T02:39:49.546Z,6.40
2018-07-24T02:44:51.717Z,4.90
2018-07-24T02:49:53.858Z,5.13
2018-07-24T02:54:56.007Z,4.60
2018-07-24T02:59:58.163Z,5.13
2018-07-24T03:05:00.350Z,4.80
2018-07-24T03:10:02.604Z,5.37
2018-07-24T03:15:04.888Z,5.67
2018-07-24T03:20:07.072Z,6.30
2018-07-24T03:25:09.234Z,6.33
2018-07-24T03:30:11.432Z,5.97
2018-07-24T03:35:13.590Z,5.80
2018-07-24T03:40:15.776Z,6.63
2018-07-24T03:45:17.966Z,7.33
2018-07-24T03:50:20.160Z,5.87
2018-07-24T03:55:22.347Z,6.20
2018-07-24T04:00:24.505Z,6.70
2018-07-24T04:05:26.692Z,7.50
2018-07-24T04:10:28.864Z,6.07
2018-07-24T04:15:31.025Z,5.97
2018-07-24T04:20:33.171Z,6.90
2018-07-24T04:25:35.289Z,7.70
2018-07-24T04:30:37.465Z,6.97
2018-07-24T04:35:39.565Z,6.33
2018-07-24T04:40:41.709Z,6.93
2018-07-24T04:45:44.155Z,8.10
2018-07-24T04:50:46.350Z,7.97
2018-07-24T04:55:48.491Z,8.17
2018-07-24T05:00:50.638Z,9.23
2018-07-24T05:05:52.818Z,9.67
2018-07-24T05:10:55.037Z,10.97
2018-07-24T05:15:57.194Z,13.37
2018-07-24T05:20:59.352Z,10.03
2018-07-24T05:26:01.490Z,7.63
2018-07-24T05:31:03.651Z,8.63
2018-07-24T05:36:05.846Z,7.00
2018-07-24T05:41:08.028Z,7.13
2018-07-24T05:46:10.232Z,6.57
2018-07-24T05:51:12.431Z,6.15
2018-07-24T05:56:14.602Z,5.30
2018-07-24T06:01:16.826Z,6.20
2018-07-24T06:06:19.059Z,5.70
2018-07-24T06:11:21.263Z,7.20
2018-07-24T06:16:23.430Z,4.90
2018-07-24T06:21:25.620Z,5.90
2018-07-24T06:26:27.762Z,5.80
2018-07-24T06:31:30.007Z,5.80
2018-07-24T06:36:32.181Z,6.20
2018-07-24T06:41:34.381Z,4.90
2018-07-24T06:46:36.902Z,4.50
2018-07-24T06:51:39.166Z,3.70
2018-07-24T06:56:41.353Z,3.30
2018-07-24T07:01:43.523Z,4.00
2018-07-24T07:06:45.705Z,2.60
2018-07-24T07:11:47.984Z,3.23
2018-07-24T07:16:50.149Z,3.03
2018-07-24T07:21:52.350Z,2.60
2018-07-24T07:26:54.536Z,2.87
2018-07-24T07:31:56.720Z,3.10
2018-07-24T07:36:59.261Z,3.27
2018-07-24T07:42:01.431Z,3.30
2018-07-24T07:47:03.604Z,2.53
2018-07-24T07:52:05.937Z,3.20
2018-07-24T07:57:08.100Z,3.10
2018-07-24T08:02:10.287Z,2.90
2018-07-24T08:07:13.296Z,2.77
2018-07-24T08:12:15.561Z,3.03
2018-07-24T08:17:18.233Z,2.97
2018-07-24T08:22:20.471Z,2.77
2018-07-24T08:27:23.223Z,3.40
2018-07-24T08:32:25.413Z,3.00
2018-07-24T08:37:28.424Z,2.40
2018-07-24T08:42:30.624Z,2.37
2018-07-24T08:47:32.776Z,2.63
2018-07-24T08:52:34.913Z,3.07
2018-07-24T08:57:37.106Z,2.60
2018-07-24T09:02:39.451Z,3.50
2018-07-24T09:07:41.636Z,3.10
2018-07-24T09:12:43.807Z,3.60
2018-07-24T09:17:46.083Z,3.43
2018-07-24T09:22:48.293Z,3.33
2018-07-24T09:27:51.194Z,4.30
2018-07-24T09:32:53.444Z,3.37
2018-07-24T09:37:55.600Z,3.30
2018-07-24T09:42:57.834Z,3.53
2018-07-24T09:48:00.067Z,3.40
2018-07-24T09:53:02.359Z,4.07
2018-07-24T09:58:04.636Z,4.60
2018-07-24T10:03:06.797Z,3.70
2018-07-24T10:08:09.005Z,3.50
2018-07-24T10:13:11.275Z,4.23
2018-07-24T10:18:13.383Z,3.77
2018-07-24T10:23:15.624Z,3.50
2018-07-24T10:28:17.795Z,3.50
2018-07-24T10:33:20.015Z,2.77
2018-07-24T10:38:22.316Z,3.60
2018-07-24T10:43:24.486Z,4.20
2018-07-24T10:48:26.681Z,3.50
2018-07-24T10:53:28.865Z,3.70
2018-07-24T10:58:31.069Z,3.40
2018-07-24T11:03:33.281Z,3.53
2018-07-24T11:08:35.461Z,2.90
2018-07-24T11:13:37.695Z,3.70
2018-07-24T11:18:39.887Z,3.43
2018-07-24T11:23:42.099Z,4.03
2018-07-24T11:28:44.256Z,3.47
2018-07-24T11:33:46.461Z,4.10
2018-07-24T11:38:48.643Z,3.43
2018-07-24T11:43:51.240Z,3.27
2018-07-24T11:48:53.423Z,2.80
2018-07-24T11:53:55.634Z,3.00
2018-07-24T11:58:57.881Z,3.17
2018-07-24T12:04:00.063Z,3.50
2018-07-24T12:09:02.340Z,2.70
2018-07-24T12:14:04.604Z,3.63
2018-07-24T12:19:06.768Z,3.47
2018-07-24T12:24:08.959Z,3.10
2018-07-24T12:29:11.313Z,3.00
2018-07-24T12:34:13.477Z,2.57
2018-07-24T12:39:15.652Z,2.67
2018-07-24T12:44:17.819Z,2.50
2018-07-24T12:49:20.151Z,3.37
2018-07-24T12:54:22.307Z,2.80
2018-07-24T12:59:24.517Z,3.50
2018-07-24T13:04:26.747Z,2.70
2018-07-24T13:09:28.884Z,2.93
2018-07-24T13:14:31.086Z,2.70
2018-07-24T13:19:33.283Z,3.10
2018-07-24T13:24:35.424Z,3.13
2018-07-24T13:29:37.602Z,3.30
2018-07-24T13:34:39.786Z,2.77
2018-07-24T13:39:41.955Z,3.10
2018-07-24T13:44:44.191Z,3.33
2018-07-24T13:49:46.378Z,2.97
2018-07-24T13:54:48.840Z,3.07
2018-07-24T13:59:50.984Z,3.23
2018-07-24T14:04:53.171Z,3.63
2018-07-24T14:09:55.390Z,3.40
2018-07-24T14:14:57.603Z,2.83
2018-07-24T14:19:59.804Z,3.23
2018-07-24T14:25:01.973Z,2.90
2018-07-24T14:30:04.711Z,3.63
2018-07-24T14:35:06.897Z,3.20
2018-07-24T14:40:09.084Z,2.67
2018-07-24T14:45:11.218Z,3.30
2018-07-24T14:50:13.390Z,2.60
2018-07-24T14:55:15.589Z,2.97
2018-07-24T15:00:17.774Z,2.40
2018-07-24T15:05:19.945Z,3.03
2018-07-24T15:10:22.086Z,2.50
2018-07-24T15:15:24.315Z,2.83
2018-07-24T15:20:26.495Z,3.00
2018-07-24T15:25:28.663Z,2.60
2018-07-24T15:30:30.844Z,3.00
2018-07-24T15:35:33.019Z,2.43
2018-07-24T15:40:35.215Z,3.03
2018-07-24T15:45:37.770Z,3.00
2018-07-24T15:50:39.919Z,2.97
2018-07-24T15:55:43.480Z,2.80
2018-07-24T16:00:45.695Z,3.10
2018-07-24T16:05:47.926Z,2.73
2018-07-24T16:10:50.155Z,3.07
2018-07-24T16:15:52.425Z,2.80
2018-07-24T16:20:54.606Z,3.03
2018-07-24T16:25:56.789Z,3.07
2018-07-24T16:30:59.043Z,2.70
2018-07-24T16:36:01.329Z,3.63
2018-07-24T16:41:03.552Z,3.60
2018-07-24T16:46:05.776Z,3.40
2018-07-24T16:51:07.998Z,4.07
2018-07-24T16:56:10.247Z,3.67
2018-07-24T17:01:12.413Z,3.20
2018-07-24T17:06:14.644Z,3.57
2018-07-24T17:11:17.608Z,3.37
2018-07-24T17:16:19.845Z,3.63
2018-07-24T17:21:22.008Z,3.27
2018-07-24T17:26:24.304Z,3.40
2018-07-24T17:31:26.378Z,3.10
2018-07-24T17:36:28.574Z,2.50
2018-07-24T17:41:30.740Z,2.63
2018-07-24T17:46:33.071Z,3.10
2018-07-24T17:51:35.223Z,2.67
2018-07-24T17:56:37.622Z,2.70
2018-07-24T18:01:39.817Z,2.80
2018-07-24T18:06:42.182Z,2.73
2018-07-24T18:11:44.353Z,2.07
2018-07-24T18:16:46.572Z,2.40
2018-07-24T18:21:48.786Z,3.07
2018-07-24T18:26:51.011Z,2.20
2018-07-24T18:31:53.233Z,2.80
2018-07-24T18:36:55.527Z,3.17
2018-07-24T18:41:57.721Z,2.50
2018-07-24T18:47:00.014Z,2.90
2018-07-24T18:52:02.229Z,2.63
2018-07-24T18:57:04.523Z,2.60
2018-07-24T19:02:06.754Z,2.67
2018-07-24T19:07:08.983Z,2.23
2018-07-24T19:12:11.217Z,2.93
2018-07-24T19:17:13.509Z,2.83
2018-07-24T19:22:16.260Z,2.40
2018-07-24T19:27:18.965Z,2.67
2018-07-24T19:32:22.318Z,2.87
2018-07-24T19:37:24.987Z,2.80
2018-07-24T19:42:27.678Z,2.60
2018-07-24T19:47:30.199Z,2.92
2018-07-24T19:52:33.063Z,3.53
2018-07-24T19:57:35.551Z,2.60
2018-07-24T20:02:37.964Z,2.60
2018-07-24T20:07:40.503Z,2.80
2018-07-24T20:12:42.809Z,2.67
2018-07-24T20:17:45.184Z,2.80
2018-07-24T20:22:47.851Z,3.80
2018-07-24T20:27:50.253Z,3.40
2018-07-24T20:32:52.720Z,3.20
2018-07-24T20:37:54.975Z,3.70
2018-07-24T20:42:57.215Z,3.30
2018-07-24T20:47:59.413Z,4.03
2018-07-24T20:53:01.631Z,3.87
2018-07-24T20:58:03.881Z,3.90
2018-07-24T21:03:06.180Z,3.43
2018-07-24T21:08:08.996Z,3.60
2018-07-24T21:13:14.198Z,3.30
2018-07-24T21:18:16.448Z,3.97
2018-07-24T21:23:18.663Z,3.40
2018-07-24T21:28:20.856Z,3.40
2018-07-24T21:33:23.655Z,4.03
2018-07-24T21:38:25.875Z,4.43
2018-07-24T21:43:28.057Z,4.03
2018-07-24T21:48:30.261Z,3.80
2018-07-24T21:53:32.475Z,3.77
2018-07-24T21:58:35.868Z,3.90
2018-07-24T22:03:38.114Z,3.40
2018-07-24T22:08:40.298Z,3.60
2018-07-24T22:13:42.467Z,3.83
2018-07-24T22:18:44.696Z,3.43
2018-07-24T22:23:46.987Z,3.20
2018-07-24T22:28:49.163Z,3.20
2018-07-24T22:33:51.355Z,3.83
2018-07-24T22:38:53.542Z,3.93
2018-07-24T22:43:55.708Z,3.83
2018-07-24T22:48:57.965Z,3.70
2018-07-24T22:54:00.171Z,4.10
2018-07-24T22:59:02.338Z,3.10
2018-07-24T23:04:04.858Z,3.53
2018-07-24T23:09:08.175Z,3.67
2018-07-24T23:14:10.351Z,3.00
2018-07-24T23:19:12.533Z,3.40
2018-07-24T23:24:14.805Z,3.70
2018-07-24T23:29:17.005Z,2.97
2018-07-24T23:34:19.234Z,3.30
2018-07-24T23:39:21.459Z,3.20
2018-07-24T23:44:23.622Z,3.00
2018-07-24T23:49:25.759Z,2.73
2018-07-24T23:54:27.894Z,2.80
2018-07-24T23:59:30.039Z,3.60
